<?xml version="1.0" encoding="UTF-8" standalone="no" ?>
<gpx xmlns="http://www.topografix.com/GPX/1/1" xmlns:xsi="http://www.w3.org/2001/XMLSchema-instance" xsi:schemaLocation="http://www.topografix.com/GPX/1/1 http://www.topografix.com/GPX/1/1/gpx.xsd" version="1.1" creator="VisuGPX - https://www.visugpx.com">
  <metadata>
    <name>Murviel-lès-Béziers Randonnée Pigeonnier</name>
  </metadata>
  <trk>
    <name><![CDATA[Murviel-lès-Béziers Randonnée]]></name>
    <trkseg>
      <trkpt lat="43.44008" lon="3.13851">
        <ele>139.80000305176</ele>
        <time>2022-01-01T13:39:16.000Z</time>
      </trkpt>
      <trkpt lat="43.44008" lon="3.13851">
        <ele>139.80000305176</ele>
        <time>2022-01-01T13:39:17.000Z</time>
      </trkpt>
      <trkpt lat="43.44015" lon="3.1381">
        <ele>139.60000610352</ele>
        <time>2022-01-01T13:39:47.000Z</time>
      </trkpt>
      <trkpt lat="43.44011" lon="3.13814">
        <ele>139</ele>
        <time>2022-01-01T13:40:05.000Z</time>
      </trkpt>
      <trkpt lat="43.44001" lon="3.13822">
        <ele>139.60000610352</ele>
        <time>2022-01-01T13:40:27.000Z</time>
      </trkpt>
      <trkpt lat="43.44006" lon="3.13819">
        <ele>140</ele>
        <time>2022-01-01T13:40:39.000Z</time>
      </trkpt>
      <trkpt lat="43.44007" lon="3.13804">
        <ele>139</ele>
        <time>2022-01-01T13:40:59.000Z</time>
      </trkpt>
      <trkpt lat="43.44002" lon="3.13794">
        <ele>138.80000305176</ele>
        <time>2022-01-01T13:41:21.000Z</time>
      </trkpt>
      <trkpt lat="43.43999" lon="3.13792">
        <ele>138.80000305176</ele>
        <time>2022-01-01T13:41:46.000Z</time>
      </trkpt>
      <trkpt lat="43.43988" lon="3.13788">
        <ele>138.80000305176</ele>
        <time>2022-01-01T13:42:10.000Z</time>
      </trkpt>
      <trkpt lat="43.43973" lon="3.13786">
        <ele>138.39999389648</ele>
        <time>2022-01-01T13:42:28.000Z</time>
      </trkpt>
      <trkpt lat="43.43966" lon="3.13784">
        <ele>138.19999694824</ele>
        <time>2022-01-01T13:42:34.000Z</time>
      </trkpt>
      <trkpt lat="43.43955" lon="3.13765">
        <ele>138.19999694824</ele>
        <time>2022-01-01T13:42:51.000Z</time>
      </trkpt>
      <trkpt lat="43.43954" lon="3.13761">
        <ele>138</ele>
        <time>2022-01-01T13:42:54.000Z</time>
      </trkpt>
      <trkpt lat="43.43957" lon="3.13719">
        <ele>136</ele>
        <time>2022-01-01T13:43:21.000Z</time>
      </trkpt>
      <trkpt lat="43.43952" lon="3.13699">
        <ele>135.39999389648</ele>
        <time>2022-01-01T13:43:34.000Z</time>
      </trkpt>
      <trkpt lat="43.43953" lon="3.13695">
        <ele>135.19999694824</ele>
        <time>2022-01-01T13:43:37.000Z</time>
      </trkpt>
      <trkpt lat="43.4395" lon="3.13661">
        <ele>133.60000610352</ele>
        <time>2022-01-01T13:43:58.000Z</time>
      </trkpt>
      <trkpt lat="43.43945" lon="3.13628">
        <ele>131.60000610352</ele>
        <time>2022-01-01T13:44:18.000Z</time>
      </trkpt>
      <trkpt lat="43.43943" lon="3.13599">
        <ele>130.39999389648</ele>
        <time>2022-01-01T13:44:37.000Z</time>
      </trkpt>
      <trkpt lat="43.43943" lon="3.13569">
        <ele>129</ele>
        <time>2022-01-01T13:44:56.000Z</time>
      </trkpt>
      <trkpt lat="43.4394" lon="3.1354">
        <ele>127.19999694824</ele>
        <time>2022-01-01T13:45:16.000Z</time>
      </trkpt>
      <trkpt lat="43.43934" lon="3.13513">
        <ele>126</ele>
        <time>2022-01-01T13:45:34.000Z</time>
      </trkpt>
      <trkpt lat="43.43935" lon="3.13475">
        <ele>125.40000152588</ele>
        <time>2022-01-01T13:45:54.000Z</time>
      </trkpt>
      <trkpt lat="43.43935" lon="3.13472">
        <ele>125.40000152588</ele>
        <time>2022-01-01T13:45:56.000Z</time>
      </trkpt>
      <trkpt lat="43.43936" lon="3.13445">
        <ele>125.40000152588</ele>
        <time>2022-01-01T13:46:12.000Z</time>
      </trkpt>
      <trkpt lat="43.43944" lon="3.13422">
        <ele>125.80000305176</ele>
        <time>2022-01-01T13:46:29.000Z</time>
      </trkpt>
      <trkpt lat="43.4395" lon="3.13419">
        <ele>125.59999847412</ele>
        <time>2022-01-01T13:46:33.000Z</time>
      </trkpt>
      <trkpt lat="43.4397" lon="3.13416">
        <ele>124.80000305176</ele>
        <time>2022-01-01T13:46:51.000Z</time>
      </trkpt>
      <trkpt lat="43.43978" lon="3.13415">
        <ele>124.59999847412</ele>
        <time>2022-01-01T13:46:58.000Z</time>
      </trkpt>
      <trkpt lat="43.43981" lon="3.13408">
        <ele>124.59999847412</ele>
        <time>2022-01-01T13:47:04.000Z</time>
      </trkpt>
      <trkpt lat="43.43989" lon="3.13397">
        <ele>124.40000152588</ele>
        <time>2022-01-01T13:47:11.000Z</time>
      </trkpt>
      <trkpt lat="43.43989" lon="3.13385">
        <ele>124.40000152588</ele>
        <time>2022-01-01T13:47:19.000Z</time>
      </trkpt>
      <trkpt lat="43.43988" lon="3.13382">
        <ele>124.40000152588</ele>
        <time>2022-01-01T13:47:21.000Z</time>
      </trkpt>
      <trkpt lat="43.43987" lon="3.13377">
        <ele>124.40000152588</ele>
        <time>2022-01-01T13:47:24.000Z</time>
      </trkpt>
      <trkpt lat="43.43987" lon="3.1337">
        <ele>124.40000152588</ele>
        <time>2022-01-01T13:47:28.000Z</time>
      </trkpt>
      <trkpt lat="43.43986" lon="3.13356">
        <ele>124.59999847412</ele>
        <time>2022-01-01T13:47:36.000Z</time>
      </trkpt>
      <trkpt lat="43.43983" lon="3.13331">
        <ele>125</ele>
        <time>2022-01-01T13:47:51.000Z</time>
      </trkpt>
      <trkpt lat="43.43977" lon="3.13302">
        <ele>125.19999694824</ele>
        <time>2022-01-01T13:48:09.000Z</time>
      </trkpt>
      <trkpt lat="43.4397" lon="3.13276">
        <ele>125.80000305176</ele>
        <time>2022-01-01T13:48:24.000Z</time>
      </trkpt>
      <trkpt lat="43.43966" lon="3.13258">
        <ele>126.19999694824</ele>
        <time>2022-01-01T13:48:36.000Z</time>
      </trkpt>
      <trkpt lat="43.43961" lon="3.13233">
        <ele>127.59999847412</ele>
        <time>2022-01-01T13:48:53.000Z</time>
      </trkpt>
      <trkpt lat="43.43957" lon="3.13219">
        <ele>128</ele>
        <time>2022-01-01T13:49:03.000Z</time>
      </trkpt>
      <trkpt lat="43.4395" lon="3.13186">
        <ele>129.19999694824</ele>
        <time>2022-01-01T13:49:22.000Z</time>
      </trkpt>
      <trkpt lat="43.43941" lon="3.13149">
        <ele>129.80000305176</ele>
        <time>2022-01-01T13:49:43.000Z</time>
      </trkpt>
      <trkpt lat="43.43938" lon="3.13135">
        <ele>130</ele>
        <time>2022-01-01T13:49:51.000Z</time>
      </trkpt>
      <trkpt lat="43.43937" lon="3.13127">
        <ele>129.80000305176</ele>
        <time>2022-01-01T13:49:55.000Z</time>
      </trkpt>
      <trkpt lat="43.43934" lon="3.13104">
        <ele>129.80000305176</ele>
        <time>2022-01-01T13:50:08.000Z</time>
      </trkpt>
      <trkpt lat="43.43933" lon="3.13095">
        <ele>129.80000305176</ele>
        <time>2022-01-01T13:50:14.000Z</time>
      </trkpt>
      <trkpt lat="43.43931" lon="3.13054">
        <ele>130</ele>
        <time>2022-01-01T13:50:37.000Z</time>
      </trkpt>
      <trkpt lat="43.4393" lon="3.13027">
        <ele>129.80000305176</ele>
        <time>2022-01-01T13:50:53.000Z</time>
      </trkpt>
      <trkpt lat="43.43927" lon="3.12994">
        <ele>129.39999389648</ele>
        <time>2022-01-01T13:51:12.000Z</time>
      </trkpt>
      <trkpt lat="43.43924" lon="3.12963">
        <ele>129.39999389648</ele>
        <time>2022-01-01T13:51:29.000Z</time>
      </trkpt>
      <trkpt lat="43.4392" lon="3.12928">
        <ele>128.39999389648</ele>
        <time>2022-01-01T13:51:50.000Z</time>
      </trkpt>
      <trkpt lat="43.43915" lon="3.12892">
        <ele>127.59999847412</ele>
        <time>2022-01-01T13:52:11.000Z</time>
      </trkpt>
      <trkpt lat="43.4391" lon="3.12864">
        <ele>127</ele>
        <time>2022-01-01T13:52:28.000Z</time>
      </trkpt>
      <trkpt lat="43.439" lon="3.12833">
        <ele>126.59999847412</ele>
        <time>2022-01-01T13:52:48.000Z</time>
      </trkpt>
      <trkpt lat="43.43894" lon="3.12806">
        <ele>126.59999847412</ele>
        <time>2022-01-01T13:53:04.000Z</time>
      </trkpt>
      <trkpt lat="43.43898" lon="3.12778">
        <ele>126</ele>
        <time>2022-01-01T13:53:21.000Z</time>
      </trkpt>
      <trkpt lat="43.43898" lon="3.12759">
        <ele>125.19999694824</ele>
        <time>2022-01-01T13:53:32.000Z</time>
      </trkpt>
      <trkpt lat="43.43891" lon="3.12732">
        <ele>124</ele>
        <time>2022-01-01T13:53:49.000Z</time>
      </trkpt>
      <trkpt lat="43.43884" lon="3.12709">
        <ele>122.19999694824</ele>
        <time>2022-01-01T13:54:04.000Z</time>
      </trkpt>
      <trkpt lat="43.43881" lon="3.12685">
        <ele>121.59999847412</ele>
        <time>2022-01-01T13:54:19.000Z</time>
      </trkpt>
      <trkpt lat="43.43881" lon="3.12683">
        <ele>121.59999847412</ele>
        <time>2022-01-01T13:54:20.000Z</time>
      </trkpt>
      <trkpt lat="43.43882" lon="3.12677">
        <ele>121.80000305176</ele>
        <time>2022-01-01T13:54:23.000Z</time>
      </trkpt>
      <trkpt lat="43.43889" lon="3.12648">
        <ele>122.80000305176</ele>
        <time>2022-01-01T13:54:43.000Z</time>
      </trkpt>
      <trkpt lat="43.43903" lon="3.12624">
        <ele>123.59999847412</ele>
        <time>2022-01-01T13:55:01.000Z</time>
      </trkpt>
      <trkpt lat="43.43911" lon="3.12607">
        <ele>124.19999694824</ele>
        <time>2022-01-01T13:55:15.000Z</time>
      </trkpt>
      <trkpt lat="43.4392" lon="3.12596">
        <ele>123.80000305176</ele>
        <time>2022-01-01T13:55:25.000Z</time>
      </trkpt>
      <trkpt lat="43.43922" lon="3.12589">
        <ele>123.40000152588</ele>
        <time>2022-01-01T13:55:29.000Z</time>
      </trkpt>
      <trkpt lat="43.4393" lon="3.12567">
        <ele>121.40000152588</ele>
        <time>2022-01-01T13:55:46.000Z</time>
      </trkpt>
      <trkpt lat="43.43954" lon="3.12552">
        <ele>119.40000152588</ele>
        <time>2022-01-01T13:56:09.000Z</time>
      </trkpt>
      <trkpt lat="43.43973" lon="3.12558">
        <ele>119.19999694824</ele>
        <time>2022-01-01T13:56:26.000Z</time>
      </trkpt>
      <trkpt lat="43.43996" lon="3.1257">
        <ele>119.40000152588</ele>
        <time>2022-01-01T13:56:45.000Z</time>
      </trkpt>
      <trkpt lat="43.44001" lon="3.12571">
        <ele>119.40000152588</ele>
        <time>2022-01-01T13:56:51.000Z</time>
      </trkpt>
      <trkpt lat="43.4403" lon="3.12545">
        <ele>119.59999847412</ele>
        <time>2022-01-01T13:57:15.000Z</time>
      </trkpt>
      <trkpt lat="43.44042" lon="3.1252">
        <ele>119.19999694824</ele>
        <time>2022-01-01T13:57:33.000Z</time>
      </trkpt>
      <trkpt lat="43.44046" lon="3.125">
        <ele>118.59999847412</ele>
        <time>2022-01-01T13:57:47.000Z</time>
      </trkpt>
      <trkpt lat="43.44048" lon="3.1248">
        <ele>118.19999694824</ele>
        <time>2022-01-01T13:57:59.000Z</time>
      </trkpt>
      <trkpt lat="43.44053" lon="3.12451">
        <ele>119.40000152588</ele>
        <time>2022-01-01T13:58:17.000Z</time>
      </trkpt>
      <trkpt lat="43.44069" lon="3.12422">
        <ele>120.40000152588</ele>
        <time>2022-01-01T13:58:38.000Z</time>
      </trkpt>
      <trkpt lat="43.4408" lon="3.12393">
        <ele>121.59999847412</ele>
        <time>2022-01-01T13:58:58.000Z</time>
      </trkpt>
      <trkpt lat="43.44093" lon="3.12368">
        <ele>122.80000305176</ele>
        <time>2022-01-01T13:59:16.000Z</time>
      </trkpt>
      <trkpt lat="43.44102" lon="3.12352">
        <ele>124</ele>
        <time>2022-01-01T13:59:28.000Z</time>
      </trkpt>
      <trkpt lat="43.44103" lon="3.12351">
        <ele>124</ele>
        <time>2022-01-01T13:59:29.000Z</time>
      </trkpt>
      <trkpt lat="43.44107" lon="3.12345">
        <ele>124.59999847412</ele>
        <time>2022-01-01T13:59:35.000Z</time>
      </trkpt>
      <trkpt lat="43.44116" lon="3.12329">
        <ele>125.40000152588</ele>
        <time>2022-01-01T13:59:48.000Z</time>
      </trkpt>
      <trkpt lat="43.44117" lon="3.12328">
        <ele>125.40000152588</ele>
        <time>2022-01-01T13:59:49.000Z</time>
      </trkpt>
      <trkpt lat="43.44119" lon="3.12325">
        <ele>125.80000305176</ele>
        <time>2022-01-01T13:59:52.000Z</time>
      </trkpt>
      <trkpt lat="43.44126" lon="3.12313">
        <ele>126.80000305176</ele>
        <time>2022-01-01T14:00:03.000Z</time>
      </trkpt>
      <trkpt lat="43.44129" lon="3.12303">
        <ele>127.80000305176</ele>
        <time>2022-01-01T14:00:11.000Z</time>
      </trkpt>
      <trkpt lat="43.44129" lon="3.123">
        <ele>128.19999694824</ele>
        <time>2022-01-01T14:00:13.000Z</time>
      </trkpt>
      <trkpt lat="43.44135" lon="3.12284">
        <ele>129.80000305176</ele>
        <time>2022-01-01T14:00:26.000Z</time>
      </trkpt>
      <trkpt lat="43.44137" lon="3.12272">
        <ele>131.19999694824</ele>
        <time>2022-01-01T14:00:35.000Z</time>
      </trkpt>
      <trkpt lat="43.44144" lon="3.12251">
        <ele>133.60000610352</ele>
        <time>2022-01-01T14:00:49.000Z</time>
      </trkpt>
      <trkpt lat="43.44142" lon="3.12236">
        <ele>135.39999389648</ele>
        <time>2022-01-01T14:01:05.000Z</time>
      </trkpt>
      <trkpt lat="43.44123" lon="3.12222">
        <ele>136.19999694824</ele>
        <time>2022-01-01T14:01:23.000Z</time>
      </trkpt>
      <trkpt lat="43.44119" lon="3.12216">
        <ele>136.60000610352</ele>
        <time>2022-01-01T14:01:28.000Z</time>
      </trkpt>
      <trkpt lat="43.44101" lon="3.12195">
        <ele>138.60000610352</ele>
        <time>2022-01-01T14:01:55.000Z</time>
      </trkpt>
      <trkpt lat="43.44089" lon="3.1219">
        <ele>138.80000305176</ele>
        <time>2022-01-01T14:02:24.000Z</time>
      </trkpt>
      <trkpt lat="43.44068" lon="3.12175">
        <ele>141.60000610352</ele>
        <time>2022-01-01T14:02:49.000Z</time>
      </trkpt>
      <trkpt lat="43.44044" lon="3.12161">
        <ele>144.60000610352</ele>
        <time>2022-01-01T14:03:16.000Z</time>
      </trkpt>
      <trkpt lat="43.4402" lon="3.12156">
        <ele>147.80000305176</ele>
        <time>2022-01-01T14:03:38.000Z</time>
      </trkpt>
      <trkpt lat="43.44011" lon="3.12155">
        <ele>148.80000305176</ele>
        <time>2022-01-01T14:03:44.000Z</time>
      </trkpt>
      <trkpt lat="43.43999" lon="3.12155">
        <ele>150.39999389648</ele>
        <time>2022-01-01T14:03:56.000Z</time>
      </trkpt>
      <trkpt lat="43.43978" lon="3.12143">
        <ele>151</ele>
        <time>2022-01-01T14:04:15.000Z</time>
      </trkpt>
      <trkpt lat="43.43972" lon="3.12139">
        <ele>150.80000305176</ele>
        <time>2022-01-01T14:04:21.000Z</time>
      </trkpt>
      <trkpt lat="43.4397" lon="3.12136">
        <ele>150.80000305176</ele>
        <time>2022-01-01T14:04:23.000Z</time>
      </trkpt>
      <trkpt lat="43.43979" lon="3.12116">
        <ele>151</ele>
        <time>2022-01-01T14:04:38.000Z</time>
      </trkpt>
      <trkpt lat="43.43988" lon="3.1211">
        <ele>151.19999694824</ele>
        <time>2022-01-01T14:04:46.000Z</time>
      </trkpt>
      <trkpt lat="43.43995" lon="3.12106">
        <ele>151.39999389648</ele>
        <time>2022-01-01T14:04:52.000Z</time>
      </trkpt>
      <trkpt lat="43.44003" lon="3.121">
        <ele>151.80000305176</ele>
        <time>2022-01-01T14:05:00.000Z</time>
      </trkpt>
      <trkpt lat="43.44006" lon="3.12098">
        <ele>151.80000305176</ele>
        <time>2022-01-01T14:05:02.000Z</time>
      </trkpt>
      <trkpt lat="43.4401" lon="3.12095">
        <ele>152</ele>
        <time>2022-01-01T14:05:06.000Z</time>
      </trkpt>
      <trkpt lat="43.44021" lon="3.12087">
        <ele>152.60000610352</ele>
        <time>2022-01-01T14:05:15.000Z</time>
      </trkpt>
      <trkpt lat="43.44024" lon="3.12085">
        <ele>152.80000305176</ele>
        <time>2022-01-01T14:05:18.000Z</time>
      </trkpt>
      <trkpt lat="43.44044" lon="3.12071">
        <ele>154.19999694824</ele>
        <time>2022-01-01T14:05:36.000Z</time>
      </trkpt>
      <trkpt lat="43.44063" lon="3.12054">
        <ele>156</ele>
        <time>2022-01-01T14:05:55.000Z</time>
      </trkpt>
      <trkpt lat="43.44085" lon="3.12036">
        <ele>157.80000305176</ele>
        <time>2022-01-01T14:06:16.000Z</time>
      </trkpt>
      <trkpt lat="43.44106" lon="3.12021">
        <ele>158.39999389648</ele>
        <time>2022-01-01T14:06:36.000Z</time>
      </trkpt>
      <trkpt lat="43.44127" lon="3.12005">
        <ele>157.60000610352</ele>
        <time>2022-01-01T14:06:56.000Z</time>
      </trkpt>
      <trkpt lat="43.4415" lon="3.11987">
        <ele>155.19999694824</ele>
        <time>2022-01-01T14:07:17.000Z</time>
      </trkpt>
      <trkpt lat="43.44169" lon="3.11971">
        <ele>153.39999389648</ele>
        <time>2022-01-01T14:07:36.000Z</time>
      </trkpt>
      <trkpt lat="43.44176" lon="3.11964">
        <ele>153</ele>
        <time>2022-01-01T14:07:44.000Z</time>
      </trkpt>
      <trkpt lat="43.44178" lon="3.11939">
        <ele>152.19999694824</ele>
        <time>2022-01-01T14:08:01.000Z</time>
      </trkpt>
      <trkpt lat="43.44167" lon="3.11919">
        <ele>152</ele>
        <time>2022-01-01T14:08:17.000Z</time>
      </trkpt>
      <trkpt lat="43.44152" lon="3.11893">
        <ele>152</ele>
        <time>2022-01-01T14:08:35.000Z</time>
      </trkpt>
      <trkpt lat="43.44136" lon="3.11862">
        <ele>152.60000610352</ele>
        <time>2022-01-01T14:08:57.000Z</time>
      </trkpt>
      <trkpt lat="43.44135" lon="3.11852">
        <ele>152.60000610352</ele>
        <time>2022-01-01T14:09:02.000Z</time>
      </trkpt>
      <trkpt lat="43.44137" lon="3.11845">
        <ele>152.39999389648</ele>
        <time>2022-01-01T14:09:06.000Z</time>
      </trkpt>
      <trkpt lat="43.44144" lon="3.11833">
        <ele>151</ele>
        <time>2022-01-01T14:09:23.000Z</time>
      </trkpt>
      <trkpt lat="43.44157" lon="3.11816">
        <ele>150.19999694824</ele>
        <time>2022-01-01T14:09:46.000Z</time>
      </trkpt>
      <trkpt lat="43.44177" lon="3.11796">
        <ele>148.39999389648</ele>
        <time>2022-01-01T14:10:05.000Z</time>
      </trkpt>
      <trkpt lat="43.44197" lon="3.11771">
        <ele>147.60000610352</ele>
        <time>2022-01-01T14:10:27.000Z</time>
      </trkpt>
      <trkpt lat="43.44207" lon="3.11759">
        <ele>147</ele>
        <time>2022-01-01T14:10:37.000Z</time>
      </trkpt>
      <trkpt lat="43.44228" lon="3.11744">
        <ele>146.60000610352</ele>
        <time>2022-01-01T14:10:57.000Z</time>
      </trkpt>
      <trkpt lat="43.44246" lon="3.11725">
        <ele>147</ele>
        <time>2022-01-01T14:11:15.000Z</time>
      </trkpt>
      <trkpt lat="43.44268" lon="3.11716">
        <ele>147.60000610352</ele>
        <time>2022-01-01T14:11:33.000Z</time>
      </trkpt>
      <trkpt lat="43.44284" lon="3.11729">
        <ele>147.80000305176</ele>
        <time>2022-01-01T14:11:48.000Z</time>
      </trkpt>
      <trkpt lat="43.443" lon="3.11745">
        <ele>148</ele>
        <time>2022-01-01T14:12:05.000Z</time>
      </trkpt>
      <trkpt lat="43.44321" lon="3.11765">
        <ele>148</ele>
        <time>2022-01-01T14:12:23.000Z</time>
      </trkpt>
      <trkpt lat="43.44342" lon="3.11768">
        <ele>148.19999694824</ele>
        <time>2022-01-01T14:12:41.000Z</time>
      </trkpt>
      <trkpt lat="43.44362" lon="3.11765">
        <ele>148.80000305176</ele>
        <time>2022-01-01T14:12:58.000Z</time>
      </trkpt>
      <trkpt lat="43.44375" lon="3.11763">
        <ele>148.80000305176</ele>
        <time>2022-01-01T14:13:09.000Z</time>
      </trkpt>
      <trkpt lat="43.44385" lon="3.11757">
        <ele>149</ele>
        <time>2022-01-01T14:13:21.000Z</time>
      </trkpt>
      <trkpt lat="43.44386" lon="3.11756">
        <ele>149</ele>
        <time>2022-01-01T14:13:22.000Z</time>
      </trkpt>
      <trkpt lat="43.44416" lon="3.11743">
        <ele>150.19999694824</ele>
        <time>2022-01-01T14:13:47.000Z</time>
      </trkpt>
      <trkpt lat="43.44445" lon="3.11724">
        <ele>152</ele>
        <time>2022-01-01T14:14:13.000Z</time>
      </trkpt>
      <trkpt lat="43.44464" lon="3.1171">
        <ele>152.19999694824</ele>
        <time>2022-01-01T14:14:30.000Z</time>
      </trkpt>
      <trkpt lat="43.44478" lon="3.11701">
        <ele>152.19999694824</ele>
        <time>2022-01-01T14:14:42.000Z</time>
      </trkpt>
      <trkpt lat="43.44489" lon="3.11689">
        <ele>152.19999694824</ele>
        <time>2022-01-01T14:14:54.000Z</time>
      </trkpt>
      <trkpt lat="43.44493" lon="3.11686">
        <ele>152.39999389648</ele>
        <time>2022-01-01T14:14:57.000Z</time>
      </trkpt>
      <trkpt lat="43.44501" lon="3.1168">
        <ele>152.80000305176</ele>
        <time>2022-01-01T14:15:17.000Z</time>
      </trkpt>
      <trkpt lat="43.445" lon="3.1168">
        <ele>152</ele>
        <time>2022-01-01T14:15:56.000Z</time>
      </trkpt>
      <trkpt lat="43.44501" lon="3.1168">
        <ele>152.39999389648</ele>
        <time>2022-01-01T14:16:54.000Z</time>
      </trkpt>
      <trkpt lat="43.44502" lon="3.11681">
        <ele>152.60000610352</ele>
        <time>2022-01-01T14:17:25.000Z</time>
      </trkpt>
      <trkpt lat="43.44503" lon="3.11678">
        <ele>152.80000305176</ele>
        <time>2022-01-01T14:17:44.000Z</time>
      </trkpt>
      <trkpt lat="43.44505" lon="3.11669">
        <ele>152.60000610352</ele>
        <time>2022-01-01T14:17:51.000Z</time>
      </trkpt>
      <trkpt lat="43.44518" lon="3.11642">
        <ele>152.39999389648</ele>
        <time>2022-01-01T14:18:10.000Z</time>
      </trkpt>
      <trkpt lat="43.44533" lon="3.11622">
        <ele>152.39999389648</ele>
        <time>2022-01-01T14:18:27.000Z</time>
      </trkpt>
      <trkpt lat="43.44548" lon="3.11606">
        <ele>153</ele>
        <time>2022-01-01T14:18:43.000Z</time>
      </trkpt>
      <trkpt lat="43.44569" lon="3.11585">
        <ele>153.80000305176</ele>
        <time>2022-01-01T14:19:00.000Z</time>
      </trkpt>
      <trkpt lat="43.44585" lon="3.11564">
        <ele>154.19999694824</ele>
        <time>2022-01-01T14:19:17.000Z</time>
      </trkpt>
      <trkpt lat="43.44604" lon="3.11537">
        <ele>155</ele>
        <time>2022-01-01T14:19:38.000Z</time>
      </trkpt>
      <trkpt lat="43.44624" lon="3.1151">
        <ele>155.60000610352</ele>
        <time>2022-01-01T14:19:59.000Z</time>
      </trkpt>
      <trkpt lat="43.4464" lon="3.11481">
        <ele>156.39999389648</ele>
        <time>2022-01-01T14:20:21.000Z</time>
      </trkpt>
      <trkpt lat="43.44656" lon="3.1145">
        <ele>157.60000610352</ele>
        <time>2022-01-01T14:20:43.000Z</time>
      </trkpt>
      <trkpt lat="43.44672" lon="3.11427">
        <ele>159</ele>
        <time>2022-01-01T14:21:01.000Z</time>
      </trkpt>
      <trkpt lat="43.44694" lon="3.11422">
        <ele>160</ele>
        <time>2022-01-01T14:21:19.000Z</time>
      </trkpt>
      <trkpt lat="43.44712" lon="3.11413">
        <ele>161.60000610352</ele>
        <time>2022-01-01T14:21:35.000Z</time>
      </trkpt>
      <trkpt lat="43.44731" lon="3.11403">
        <ele>161.60000610352</ele>
        <time>2022-01-01T14:21:52.000Z</time>
      </trkpt>
      <trkpt lat="43.4475" lon="3.11392">
        <ele>162.80000305176</ele>
        <time>2022-01-01T14:22:10.000Z</time>
      </trkpt>
      <trkpt lat="43.4473" lon="3.11393">
        <ele>164.60000610352</ele>
        <time>2022-01-01T14:22:32.000Z</time>
      </trkpt>
      <trkpt lat="43.447" lon="3.11389">
        <ele>165.39999389648</ele>
        <time>2022-01-01T14:22:59.000Z</time>
      </trkpt>
      <trkpt lat="43.44677" lon="3.11386">
        <ele>166</ele>
        <time>2022-01-01T14:23:15.000Z</time>
      </trkpt>
      <trkpt lat="43.44649" lon="3.11401">
        <ele>167.60000610352</ele>
        <time>2022-01-01T14:23:37.000Z</time>
      </trkpt>
      <trkpt lat="43.44646" lon="3.11403">
        <ele>168</ele>
        <time>2022-01-01T14:23:40.000Z</time>
      </trkpt>
      <trkpt lat="43.44626" lon="3.11408">
        <ele>169</ele>
        <time>2022-01-01T14:23:57.000Z</time>
      </trkpt>
      <trkpt lat="43.44608" lon="3.11418">
        <ele>170.19999694824</ele>
        <time>2022-01-01T14:24:13.000Z</time>
      </trkpt>
      <trkpt lat="43.44584" lon="3.11439">
        <ele>172.60000610352</ele>
        <time>2022-01-01T14:24:38.000Z</time>
      </trkpt>
      <trkpt lat="43.44552" lon="3.1144">
        <ele>174.39999389648</ele>
        <time>2022-01-01T14:25:06.000Z</time>
      </trkpt>
      <trkpt lat="43.44527" lon="3.11435">
        <ele>175.80000305176</ele>
        <time>2022-01-01T14:25:25.000Z</time>
      </trkpt>
      <trkpt lat="43.44501" lon="3.11434">
        <ele>178</ele>
        <time>2022-01-01T14:25:49.000Z</time>
      </trkpt>
      <trkpt lat="43.445" lon="3.11425">
        <ele>178.39999389648</ele>
        <time>2022-01-01T14:25:55.000Z</time>
      </trkpt>
      <trkpt lat="43.44509" lon="3.11412">
        <ele>180</ele>
        <time>2022-01-01T14:26:08.000Z</time>
      </trkpt>
      <trkpt lat="43.44527" lon="3.11389">
        <ele>181.39999389648</ele>
        <time>2022-01-01T14:26:26.000Z</time>
      </trkpt>
      <trkpt lat="43.44537" lon="3.11376">
        <ele>182.60000610352</ele>
        <time>2022-01-01T14:26:38.000Z</time>
      </trkpt>
      <trkpt lat="43.44553" lon="3.11342">
        <ele>184.80000305176</ele>
        <time>2022-01-01T14:27:03.000Z</time>
      </trkpt>
      <trkpt lat="43.44575" lon="3.11297">
        <ele>187.19999694824</ele>
        <time>2022-01-01T14:27:35.000Z</time>
      </trkpt>
      <trkpt lat="43.44585" lon="3.11283">
        <ele>188.19999694824</ele>
        <time>2022-01-01T14:27:47.000Z</time>
      </trkpt>
      <trkpt lat="43.44598" lon="3.11258">
        <ele>190.39999389648</ele>
        <time>2022-01-01T14:28:10.000Z</time>
      </trkpt>
      <trkpt lat="43.44598" lon="3.11245">
        <ele>191.19999694824</ele>
        <time>2022-01-01T14:28:19.000Z</time>
      </trkpt>
      <trkpt lat="43.44599" lon="3.11226">
        <ele>192.39999389648</ele>
        <time>2022-01-01T14:28:32.000Z</time>
      </trkpt>
      <trkpt lat="43.44609" lon="3.11209">
        <ele>194.60000610352</ele>
        <time>2022-01-01T14:28:50.000Z</time>
      </trkpt>
      <trkpt lat="43.4462" lon="3.1121">
        <ele>196</ele>
        <time>2022-01-01T14:29:09.000Z</time>
      </trkpt>
      <trkpt lat="43.44626" lon="3.112">
        <ele>196.60000610352</ele>
        <time>2022-01-01T14:29:20.000Z</time>
      </trkpt>
      <trkpt lat="43.4462" lon="3.1117">
        <ele>198.60000610352</ele>
        <time>2022-01-01T14:29:44.000Z</time>
      </trkpt>
      <trkpt lat="43.44616" lon="3.11163">
        <ele>199.19999694824</ele>
        <time>2022-01-01T14:29:49.000Z</time>
      </trkpt>
      <trkpt lat="43.44605" lon="3.11137">
        <ele>199.80000305176</ele>
        <time>2022-01-01T14:30:07.000Z</time>
      </trkpt>
      <trkpt lat="43.44599" lon="3.11116">
        <ele>198.80000305176</ele>
        <time>2022-01-01T14:30:24.000Z</time>
      </trkpt>
      <trkpt lat="43.44594" lon="3.11088">
        <ele>197.19999694824</ele>
        <time>2022-01-01T14:30:42.000Z</time>
      </trkpt>
      <trkpt lat="43.44591" lon="3.11067">
        <ele>196.19999694824</ele>
        <time>2022-01-01T14:30:55.000Z</time>
      </trkpt>
      <trkpt lat="43.44583" lon="3.11041">
        <ele>194.39999389648</ele>
        <time>2022-01-01T14:31:13.000Z</time>
      </trkpt>
      <trkpt lat="43.44572" lon="3.11015">
        <ele>192.60000610352</ele>
        <time>2022-01-01T14:31:32.000Z</time>
      </trkpt>
      <trkpt lat="43.44556" lon="3.10987">
        <ele>191.39999389648</ele>
        <time>2022-01-01T14:31:54.000Z</time>
      </trkpt>
      <trkpt lat="43.4454" lon="3.10961">
        <ele>191</ele>
        <time>2022-01-01T14:32:13.000Z</time>
      </trkpt>
      <trkpt lat="43.4452" lon="3.10932">
        <ele>191</ele>
        <time>2022-01-01T14:32:39.000Z</time>
      </trkpt>
      <trkpt lat="43.44503" lon="3.1093">
        <ele>191.39999389648</ele>
        <time>2022-01-01T14:32:57.000Z</time>
      </trkpt>
      <trkpt lat="43.44504" lon="3.10918">
        <ele>192.39999389648</ele>
        <time>2022-01-01T14:33:12.000Z</time>
      </trkpt>
      <trkpt lat="43.44523" lon="3.10912">
        <ele>193.80000305176</ele>
        <time>2022-01-01T14:33:30.000Z</time>
      </trkpt>
      <trkpt lat="43.44535" lon="3.10904">
        <ele>196</ele>
        <time>2022-01-01T14:33:44.000Z</time>
      </trkpt>
      <trkpt lat="43.44559" lon="3.1089">
        <ele>197.80000305176</ele>
        <time>2022-01-01T14:34:07.000Z</time>
      </trkpt>
      <trkpt lat="43.44575" lon="3.10879">
        <ele>198.60000610352</ele>
        <time>2022-01-01T14:34:22.000Z</time>
      </trkpt>
      <trkpt lat="43.44582" lon="3.1087">
        <ele>199.60000610352</ele>
        <time>2022-01-01T14:34:29.000Z</time>
      </trkpt>
      <trkpt lat="43.446" lon="3.10851">
        <ele>199.80000305176</ele>
        <time>2022-01-01T14:34:48.000Z</time>
      </trkpt>
      <trkpt lat="43.44614" lon="3.10844">
        <ele>200</ele>
        <time>2022-01-01T14:34:58.000Z</time>
      </trkpt>
      <trkpt lat="43.4463" lon="3.10841">
        <ele>201</ele>
        <time>2022-01-01T14:35:14.000Z</time>
      </trkpt>
      <trkpt lat="43.44656" lon="3.10835">
        <ele>204</ele>
        <time>2022-01-01T14:35:36.000Z</time>
      </trkpt>
      <trkpt lat="43.44674" lon="3.10829">
        <ele>207</ele>
        <time>2022-01-01T14:35:54.000Z</time>
      </trkpt>
      <trkpt lat="43.44694" lon="3.10834">
        <ele>210</ele>
        <time>2022-01-01T14:36:16.000Z</time>
      </trkpt>
      <trkpt lat="43.44721" lon="3.10822">
        <ele>211.19999694824</ele>
        <time>2022-01-01T14:36:37.000Z</time>
      </trkpt>
      <trkpt lat="43.44732" lon="3.10814">
        <ele>212.19999694824</ele>
        <time>2022-01-01T14:36:48.000Z</time>
      </trkpt>
      <trkpt lat="43.44737" lon="3.1081">
        <ele>212.39999389648</ele>
        <time>2022-01-01T14:36:52.000Z</time>
      </trkpt>
      <trkpt lat="43.44757" lon="3.10791">
        <ele>215</ele>
        <time>2022-01-01T14:37:14.000Z</time>
      </trkpt>
      <trkpt lat="43.44778" lon="3.10774">
        <ele>213.19999694824</ele>
        <time>2022-01-01T14:37:34.000Z</time>
      </trkpt>
      <trkpt lat="43.44798" lon="3.1076">
        <ele>212.19999694824</ele>
        <time>2022-01-01T14:37:51.000Z</time>
      </trkpt>
      <trkpt lat="43.44817" lon="3.1074">
        <ele>212</ele>
        <time>2022-01-01T14:38:11.000Z</time>
      </trkpt>
      <trkpt lat="43.44837" lon="3.10723">
        <ele>212</ele>
        <time>2022-01-01T14:38:31.000Z</time>
      </trkpt>
      <trkpt lat="43.44848" lon="3.10712">
        <ele>212.39999389648</ele>
        <time>2022-01-01T14:38:42.000Z</time>
      </trkpt>
      <trkpt lat="43.4485" lon="3.10706">
        <ele>212.39999389648</ele>
        <time>2022-01-01T14:38:46.000Z</time>
      </trkpt>
      <trkpt lat="43.44866" lon="3.10671">
        <ele>211.60000610352</ele>
        <time>2022-01-01T14:39:10.000Z</time>
      </trkpt>
      <trkpt lat="43.44881" lon="3.10645">
        <ele>211.19999694824</ele>
        <time>2022-01-01T14:39:29.000Z</time>
      </trkpt>
      <trkpt lat="43.44889" lon="3.10635">
        <ele>211</ele>
        <time>2022-01-01T14:39:38.000Z</time>
      </trkpt>
      <trkpt lat="43.44894" lon="3.10631">
        <ele>211.19999694824</ele>
        <time>2022-01-01T14:39:47.000Z</time>
      </trkpt>
      <trkpt lat="43.449" lon="3.10627">
        <ele>211.19999694824</ele>
        <time>2022-01-01T14:39:52.000Z</time>
      </trkpt>
      <trkpt lat="43.44904" lon="3.10609">
        <ele>211.19999694824</ele>
        <time>2022-01-01T14:40:05.000Z</time>
      </trkpt>
      <trkpt lat="43.44905" lon="3.10583">
        <ele>211</ele>
        <time>2022-01-01T14:40:26.000Z</time>
      </trkpt>
      <trkpt lat="43.44904" lon="3.1058">
        <ele>211</ele>
        <time>2022-01-01T14:40:29.000Z</time>
      </trkpt>
      <trkpt lat="43.44908" lon="3.10558">
        <ele>210.80000305176</ele>
        <time>2022-01-01T14:40:45.000Z</time>
      </trkpt>
      <trkpt lat="43.44909" lon="3.10548">
        <ele>210.60000610352</ele>
        <time>2022-01-01T14:40:56.000Z</time>
      </trkpt>
      <trkpt lat="43.44916" lon="3.10513">
        <ele>210</ele>
        <time>2022-01-01T14:41:18.000Z</time>
      </trkpt>
      <trkpt lat="43.44915" lon="3.10487">
        <ele>210</ele>
        <time>2022-01-01T14:41:34.000Z</time>
      </trkpt>
      <trkpt lat="43.44915" lon="3.10472">
        <ele>209.80000305176</ele>
        <time>2022-01-01T14:41:43.000Z</time>
      </trkpt>
      <trkpt lat="43.44919" lon="3.10456">
        <ele>210</ele>
        <time>2022-01-01T14:41:54.000Z</time>
      </trkpt>
      <trkpt lat="43.44922" lon="3.1045">
        <ele>210</ele>
        <time>2022-01-01T14:41:58.000Z</time>
      </trkpt>
      <trkpt lat="43.44928" lon="3.10447">
        <ele>210</ele>
        <time>2022-01-01T14:42:04.000Z</time>
      </trkpt>
      <trkpt lat="43.44951" lon="3.10453">
        <ele>210</ele>
        <time>2022-01-01T14:42:23.000Z</time>
      </trkpt>
      <trkpt lat="43.44973" lon="3.10472">
        <ele>210.19999694824</ele>
        <time>2022-01-01T14:42:43.000Z</time>
      </trkpt>
      <trkpt lat="43.44994" lon="3.1048">
        <ele>210.39999389648</ele>
        <time>2022-01-01T14:43:01.000Z</time>
      </trkpt>
      <trkpt lat="43.45018" lon="3.10493">
        <ele>210.39999389648</ele>
        <time>2022-01-01T14:43:22.000Z</time>
      </trkpt>
      <trkpt lat="43.45038" lon="3.10498">
        <ele>210.80000305176</ele>
        <time>2022-01-01T14:43:41.000Z</time>
      </trkpt>
      <trkpt lat="43.45058" lon="3.10507">
        <ele>210</ele>
        <time>2022-01-01T14:43:58.000Z</time>
      </trkpt>
      <trkpt lat="43.45076" lon="3.10531">
        <ele>209.19999694824</ele>
        <time>2022-01-01T14:44:18.000Z</time>
      </trkpt>
      <trkpt lat="43.45093" lon="3.1055">
        <ele>208.80000305176</ele>
        <time>2022-01-01T14:44:36.000Z</time>
      </trkpt>
      <trkpt lat="43.45111" lon="3.10551">
        <ele>208.39999389648</ele>
        <time>2022-01-01T14:44:49.000Z</time>
      </trkpt>
      <trkpt lat="43.45127" lon="3.10546">
        <ele>207.39999389648</ele>
        <time>2022-01-01T14:44:59.000Z</time>
      </trkpt>
      <trkpt lat="43.45149" lon="3.10543">
        <ele>205.80000305176</ele>
        <time>2022-01-01T14:45:19.000Z</time>
      </trkpt>
      <trkpt lat="43.45166" lon="3.1054">
        <ele>205.19999694824</ele>
        <time>2022-01-01T14:45:32.000Z</time>
      </trkpt>
      <trkpt lat="43.45191" lon="3.1053">
        <ele>204.80000305176</ele>
        <time>2022-01-01T14:45:53.000Z</time>
      </trkpt>
      <trkpt lat="43.45216" lon="3.10519">
        <ele>205</ele>
        <time>2022-01-01T14:46:12.000Z</time>
      </trkpt>
      <trkpt lat="43.45238" lon="3.10503">
        <ele>205.80000305176</ele>
        <time>2022-01-01T14:46:32.000Z</time>
      </trkpt>
      <trkpt lat="43.45259" lon="3.10486">
        <ele>206.60000610352</ele>
        <time>2022-01-01T14:46:51.000Z</time>
      </trkpt>
      <trkpt lat="43.45293" lon="3.10462">
        <ele>207.80000305176</ele>
        <time>2022-01-01T14:47:20.000Z</time>
      </trkpt>
      <trkpt lat="43.45324" lon="3.10439">
        <ele>208</ele>
        <time>2022-01-01T14:47:47.000Z</time>
      </trkpt>
      <trkpt lat="43.45329" lon="3.10437">
        <ele>208</ele>
        <time>2022-01-01T14:48:04.000Z</time>
      </trkpt>
      <trkpt lat="43.45332" lon="3.10437">
        <ele>208</ele>
        <time>2022-01-01T14:48:44.000Z</time>
      </trkpt>
      <trkpt lat="43.45335" lon="3.10433">
        <ele>208</ele>
        <time>2022-01-01T14:49:18.000Z</time>
      </trkpt>
      <trkpt lat="43.4535" lon="3.10422">
        <ele>207.80000305176</ele>
        <time>2022-01-01T14:49:35.000Z</time>
      </trkpt>
      <trkpt lat="43.45367" lon="3.10402">
        <ele>207.80000305176</ele>
        <time>2022-01-01T14:49:54.000Z</time>
      </trkpt>
      <trkpt lat="43.45371" lon="3.10394">
        <ele>208</ele>
        <time>2022-01-01T14:50:00.000Z</time>
      </trkpt>
      <trkpt lat="43.45395" lon="3.10377">
        <ele>208</ele>
        <time>2022-01-01T14:50:21.000Z</time>
      </trkpt>
      <trkpt lat="43.45417" lon="3.10367">
        <ele>206.80000305176</ele>
        <time>2022-01-01T14:50:41.000Z</time>
      </trkpt>
      <trkpt lat="43.45443" lon="3.10357">
        <ele>205.80000305176</ele>
        <time>2022-01-01T14:51:01.000Z</time>
      </trkpt>
      <trkpt lat="43.45475" lon="3.10343">
        <ele>204.80000305176</ele>
        <time>2022-01-01T14:51:26.000Z</time>
      </trkpt>
      <trkpt lat="43.45498" lon="3.10334">
        <ele>204.80000305176</ele>
        <time>2022-01-01T14:51:44.000Z</time>
      </trkpt>
      <trkpt lat="43.4552" lon="3.10325">
        <ele>204.60000610352</ele>
        <time>2022-01-01T14:52:02.000Z</time>
      </trkpt>
      <trkpt lat="43.45549" lon="3.10315">
        <ele>204.60000610352</ele>
        <time>2022-01-01T14:52:25.000Z</time>
      </trkpt>
      <trkpt lat="43.45572" lon="3.10306">
        <ele>205</ele>
        <time>2022-01-01T14:52:44.000Z</time>
      </trkpt>
      <trkpt lat="43.45593" lon="3.10297">
        <ele>205.60000610352</ele>
        <time>2022-01-01T14:53:01.000Z</time>
      </trkpt>
      <trkpt lat="43.45629" lon="3.10281">
        <ele>208</ele>
        <time>2022-01-01T14:53:29.000Z</time>
      </trkpt>
      <trkpt lat="43.45644" lon="3.10277">
        <ele>208.80000305176</ele>
        <time>2022-01-01T14:53:42.000Z</time>
      </trkpt>
      <trkpt lat="43.45662" lon="3.10288">
        <ele>208.19999694824</ele>
        <time>2022-01-01T14:53:58.000Z</time>
      </trkpt>
      <trkpt lat="43.45679" lon="3.10311">
        <ele>205.19999694824</ele>
        <time>2022-01-01T14:54:17.000Z</time>
      </trkpt>
      <trkpt lat="43.45696" lon="3.10333">
        <ele>202.19999694824</ele>
        <time>2022-01-01T14:54:36.000Z</time>
      </trkpt>
      <trkpt lat="43.45714" lon="3.1033">
        <ele>200</ele>
        <time>2022-01-01T14:54:54.000Z</time>
      </trkpt>
      <trkpt lat="43.45732" lon="3.10313">
        <ele>199</ele>
        <time>2022-01-01T14:55:11.000Z</time>
      </trkpt>
      <trkpt lat="43.45752" lon="3.10294">
        <ele>197.39999389648</ele>
        <time>2022-01-01T14:55:29.000Z</time>
      </trkpt>
      <trkpt lat="43.45777" lon="3.10272">
        <ele>196</ele>
        <time>2022-01-01T14:55:52.000Z</time>
      </trkpt>
      <trkpt lat="43.45785" lon="3.10269">
        <ele>195.80000305176</ele>
        <time>2022-01-01T14:55:59.000Z</time>
      </trkpt>
      <trkpt lat="43.45803" lon="3.10282">
        <ele>195.19999694824</ele>
        <time>2022-01-01T14:56:16.000Z</time>
      </trkpt>
      <trkpt lat="43.4581" lon="3.10289">
        <ele>195</ele>
        <time>2022-01-01T14:56:25.000Z</time>
      </trkpt>
      <trkpt lat="43.45826" lon="3.10293">
        <ele>194.39999389648</ele>
        <time>2022-01-01T14:56:41.000Z</time>
      </trkpt>
      <trkpt lat="43.45851" lon="3.10308">
        <ele>194</ele>
        <time>2022-01-01T14:56:58.000Z</time>
      </trkpt>
      <trkpt lat="43.45852" lon="3.1031">
        <ele>193.80000305176</ele>
        <time>2022-01-01T14:57:01.000Z</time>
      </trkpt>
      <trkpt lat="43.45864" lon="3.10336">
        <ele>192.80000305176</ele>
        <time>2022-01-01T14:57:18.000Z</time>
      </trkpt>
      <trkpt lat="43.45878" lon="3.10357">
        <ele>192.39999389648</ele>
        <time>2022-01-01T14:57:34.000Z</time>
      </trkpt>
      <trkpt lat="43.45883" lon="3.10371">
        <ele>192.39999389648</ele>
        <time>2022-01-01T14:57:41.000Z</time>
      </trkpt>
      <trkpt lat="43.45887" lon="3.10378">
        <ele>192.39999389648</ele>
        <time>2022-01-01T14:57:46.000Z</time>
      </trkpt>
      <trkpt lat="43.45879" lon="3.10405">
        <ele>191.80000305176</ele>
        <time>2022-01-01T14:58:03.000Z</time>
      </trkpt>
      <trkpt lat="43.45863" lon="3.10431">
        <ele>191</ele>
        <time>2022-01-01T14:58:22.000Z</time>
      </trkpt>
      <trkpt lat="43.45849" lon="3.10463">
        <ele>190.60000610352</ele>
        <time>2022-01-01T14:58:44.000Z</time>
      </trkpt>
      <trkpt lat="43.45832" lon="3.10495">
        <ele>190</ele>
        <time>2022-01-01T14:59:04.000Z</time>
      </trkpt>
      <trkpt lat="43.45814" lon="3.10525">
        <ele>189.19999694824</ele>
        <time>2022-01-01T14:59:25.000Z</time>
      </trkpt>
      <trkpt lat="43.45793" lon="3.10556">
        <ele>188.80000305176</ele>
        <time>2022-01-01T14:59:47.000Z</time>
      </trkpt>
      <trkpt lat="43.45773" lon="3.10584">
        <ele>188.39999389648</ele>
        <time>2022-01-01T15:00:08.000Z</time>
      </trkpt>
      <trkpt lat="43.45754" lon="3.10619">
        <ele>187.60000610352</ele>
        <time>2022-01-01T15:00:31.000Z</time>
      </trkpt>
      <trkpt lat="43.45741" lon="3.10644">
        <ele>187.39999389648</ele>
        <time>2022-01-01T15:00:49.000Z</time>
      </trkpt>
      <trkpt lat="43.45723" lon="3.10675">
        <ele>186.80000305176</ele>
        <time>2022-01-01T15:01:12.000Z</time>
      </trkpt>
      <trkpt lat="43.45711" lon="3.10709">
        <ele>185.60000610352</ele>
        <time>2022-01-01T15:01:33.000Z</time>
      </trkpt>
      <trkpt lat="43.45693" lon="3.10743">
        <ele>184.80000305176</ele>
        <time>2022-01-01T15:01:54.000Z</time>
      </trkpt>
      <trkpt lat="43.45676" lon="3.10776">
        <ele>184.60000610352</ele>
        <time>2022-01-01T15:02:15.000Z</time>
      </trkpt>
      <trkpt lat="43.4566" lon="3.10804">
        <ele>183.80000305176</ele>
        <time>2022-01-01T15:02:36.000Z</time>
      </trkpt>
      <trkpt lat="43.45648" lon="3.10827">
        <ele>183</ele>
        <time>2022-01-01T15:02:52.000Z</time>
      </trkpt>
      <trkpt lat="43.45644" lon="3.10834">
        <ele>182.60000610352</ele>
        <time>2022-01-01T15:02:57.000Z</time>
      </trkpt>
      <trkpt lat="43.45628" lon="3.10858">
        <ele>181.80000305176</ele>
        <time>2022-01-01T15:03:14.000Z</time>
      </trkpt>
      <trkpt lat="43.45599" lon="3.10882">
        <ele>181.80000305176</ele>
        <time>2022-01-01T15:03:38.000Z</time>
      </trkpt>
      <trkpt lat="43.45578" lon="3.10897">
        <ele>180.60000610352</ele>
        <time>2022-01-01T15:03:55.000Z</time>
      </trkpt>
      <trkpt lat="43.45557" lon="3.10913">
        <ele>180.39999389648</ele>
        <time>2022-01-01T15:04:13.000Z</time>
      </trkpt>
      <trkpt lat="43.45537" lon="3.10927">
        <ele>180</ele>
        <time>2022-01-01T15:04:31.000Z</time>
      </trkpt>
      <trkpt lat="43.45517" lon="3.10946">
        <ele>179.60000610352</ele>
        <time>2022-01-01T15:04:49.000Z</time>
      </trkpt>
      <trkpt lat="43.45503" lon="3.10965">
        <ele>179.80000305176</ele>
        <time>2022-01-01T15:05:07.000Z</time>
      </trkpt>
      <trkpt lat="43.45488" lon="3.10988">
        <ele>179.80000305176</ele>
        <time>2022-01-01T15:05:28.000Z</time>
      </trkpt>
      <trkpt lat="43.45481" lon="3.11001">
        <ele>179.60000610352</ele>
        <time>2022-01-01T15:05:38.000Z</time>
      </trkpt>
      <trkpt lat="43.45475" lon="3.11007">
        <ele>179.60000610352</ele>
        <time>2022-01-01T15:05:44.000Z</time>
      </trkpt>
      <trkpt lat="43.45451" lon="3.11042">
        <ele>179.60000610352</ele>
        <time>2022-01-01T15:06:06.000Z</time>
      </trkpt>
      <trkpt lat="43.45432" lon="3.11065">
        <ele>179.39999389648</ele>
        <time>2022-01-01T15:06:25.000Z</time>
      </trkpt>
      <trkpt lat="43.45409" lon="3.11091">
        <ele>179</ele>
        <time>2022-01-01T15:06:46.000Z</time>
      </trkpt>
      <trkpt lat="43.45388" lon="3.11114">
        <ele>178.39999389648</ele>
        <time>2022-01-01T15:07:07.000Z</time>
      </trkpt>
      <trkpt lat="43.45363" lon="3.11143">
        <ele>177.60000610352</ele>
        <time>2022-01-01T15:07:29.000Z</time>
      </trkpt>
      <trkpt lat="43.45339" lon="3.11169">
        <ele>177</ele>
        <time>2022-01-01T15:07:50.000Z</time>
      </trkpt>
      <trkpt lat="43.45311" lon="3.11198">
        <ele>176.39999389648</ele>
        <time>2022-01-01T15:08:15.000Z</time>
      </trkpt>
      <trkpt lat="43.45283" lon="3.11224">
        <ele>175</ele>
        <time>2022-01-01T15:08:40.000Z</time>
      </trkpt>
      <trkpt lat="43.45254" lon="3.11246">
        <ele>174.19999694824</ele>
        <time>2022-01-01T15:09:05.000Z</time>
      </trkpt>
      <trkpt lat="43.4523" lon="3.11257">
        <ele>173.19999694824</ele>
        <time>2022-01-01T15:09:25.000Z</time>
      </trkpt>
      <trkpt lat="43.45204" lon="3.11266">
        <ele>171.39999389648</ele>
        <time>2022-01-01T15:09:46.000Z</time>
      </trkpt>
      <trkpt lat="43.45181" lon="3.11285">
        <ele>171.39999389648</ele>
        <time>2022-01-01T15:10:07.000Z</time>
      </trkpt>
      <trkpt lat="43.45178" lon="3.11306">
        <ele>171.19999694824</ele>
        <time>2022-01-01T15:10:23.000Z</time>
      </trkpt>
      <trkpt lat="43.45178" lon="3.11336">
        <ele>168.39999389648</ele>
        <time>2022-01-01T15:10:43.000Z</time>
      </trkpt>
      <trkpt lat="43.45169" lon="3.11371">
        <ele>165.80000305176</ele>
        <time>2022-01-01T15:11:03.000Z</time>
      </trkpt>
      <trkpt lat="43.45159" lon="3.11403">
        <ele>166.39999389648</ele>
        <time>2022-01-01T15:11:24.000Z</time>
      </trkpt>
      <trkpt lat="43.45155" lon="3.11423">
        <ele>167.19999694824</ele>
        <time>2022-01-01T15:11:35.000Z</time>
      </trkpt>
      <trkpt lat="43.45141" lon="3.11447">
        <ele>168.80000305176</ele>
        <time>2022-01-01T15:11:55.000Z</time>
      </trkpt>
      <trkpt lat="43.4514" lon="3.11479">
        <ele>169.80000305176</ele>
        <time>2022-01-01T15:12:16.000Z</time>
      </trkpt>
      <trkpt lat="43.45134" lon="3.11521">
        <ele>170.60000610352</ele>
        <time>2022-01-01T15:12:38.000Z</time>
      </trkpt>
      <trkpt lat="43.4512" lon="3.11554">
        <ele>170.19999694824</ele>
        <time>2022-01-01T15:12:58.000Z</time>
      </trkpt>
      <trkpt lat="43.45104" lon="3.11584">
        <ele>169.80000305176</ele>
        <time>2022-01-01T15:13:20.000Z</time>
      </trkpt>
      <trkpt lat="43.45092" lon="3.11608">
        <ele>167.60000610352</ele>
        <time>2022-01-01T15:13:39.000Z</time>
      </trkpt>
      <trkpt lat="43.45082" lon="3.11638">
        <ele>166.39999389648</ele>
        <time>2022-01-01T15:13:59.000Z</time>
      </trkpt>
      <trkpt lat="43.45072" lon="3.1167">
        <ele>164.80000305176</ele>
        <time>2022-01-01T15:14:19.000Z</time>
      </trkpt>
      <trkpt lat="43.45063" lon="3.11698">
        <ele>163.39999389648</ele>
        <time>2022-01-01T15:14:38.000Z</time>
      </trkpt>
      <trkpt lat="43.45047" lon="3.11727">
        <ele>161.60000610352</ele>
        <time>2022-01-01T15:14:58.000Z</time>
      </trkpt>
      <trkpt lat="43.45026" lon="3.11728">
        <ele>161.19999694824</ele>
        <time>2022-01-01T15:15:15.000Z</time>
      </trkpt>
      <trkpt lat="43.45007" lon="3.1173">
        <ele>162</ele>
        <time>2022-01-01T15:15:32.000Z</time>
      </trkpt>
      <trkpt lat="43.44985" lon="3.11742">
        <ele>163.60000610352</ele>
        <time>2022-01-01T15:15:53.000Z</time>
      </trkpt>
      <trkpt lat="43.44978" lon="3.11746">
        <ele>164</ele>
        <time>2022-01-01T15:15:58.000Z</time>
      </trkpt>
      <trkpt lat="43.44972" lon="3.11748">
        <ele>164.19999694824</ele>
        <time>2022-01-01T15:16:04.000Z</time>
      </trkpt>
      <trkpt lat="43.44959" lon="3.11756">
        <ele>164.39999389648</ele>
        <time>2022-01-01T15:16:15.000Z</time>
      </trkpt>
      <trkpt lat="43.44954" lon="3.11784">
        <ele>163.60000610352</ele>
        <time>2022-01-01T15:16:31.000Z</time>
      </trkpt>
      <trkpt lat="43.44953" lon="3.11786">
        <ele>163.60000610352</ele>
        <time>2022-01-01T15:16:33.000Z</time>
      </trkpt>
      <trkpt lat="43.44951" lon="3.11798">
        <ele>163</ele>
        <time>2022-01-01T15:16:41.000Z</time>
      </trkpt>
      <trkpt lat="43.44938" lon="3.11826">
        <ele>161.80000305176</ele>
        <time>2022-01-01T15:17:01.000Z</time>
      </trkpt>
      <trkpt lat="43.44936" lon="3.11842">
        <ele>160.60000610352</ele>
        <time>2022-01-01T15:17:12.000Z</time>
      </trkpt>
      <trkpt lat="43.4493" lon="3.11849">
        <ele>159.19999694824</ele>
        <time>2022-01-01T15:17:25.000Z</time>
      </trkpt>
      <trkpt lat="43.44904" lon="3.11857">
        <ele>158.39999389648</ele>
        <time>2022-01-01T15:17:45.000Z</time>
      </trkpt>
      <trkpt lat="43.44891" lon="3.11859">
        <ele>158.19999694824</ele>
        <time>2022-01-01T15:17:55.000Z</time>
      </trkpt>
      <trkpt lat="43.44865" lon="3.11858">
        <ele>157</ele>
        <time>2022-01-01T15:18:15.000Z</time>
      </trkpt>
      <trkpt lat="43.44837" lon="3.11846">
        <ele>155.80000305176</ele>
        <time>2022-01-01T15:18:39.000Z</time>
      </trkpt>
      <trkpt lat="43.44811" lon="3.11836">
        <ele>157</ele>
        <time>2022-01-01T15:19:00.000Z</time>
      </trkpt>
      <trkpt lat="43.44782" lon="3.11843">
        <ele>157</ele>
        <time>2022-01-01T15:19:23.000Z</time>
      </trkpt>
      <trkpt lat="43.44754" lon="3.11843">
        <ele>155.80000305176</ele>
        <time>2022-01-01T15:19:43.000Z</time>
      </trkpt>
      <trkpt lat="43.44729" lon="3.1184">
        <ele>155.80000305176</ele>
        <time>2022-01-01T15:20:02.000Z</time>
      </trkpt>
      <trkpt lat="43.44699" lon="3.11837">
        <ele>155.39999389648</ele>
        <time>2022-01-01T15:20:25.000Z</time>
      </trkpt>
      <trkpt lat="43.44672" lon="3.11836">
        <ele>154.80000305176</ele>
        <time>2022-01-01T15:20:46.000Z</time>
      </trkpt>
      <trkpt lat="43.44653" lon="3.11838">
        <ele>153.19999694824</ele>
        <time>2022-01-01T15:21:05.000Z</time>
      </trkpt>
      <trkpt lat="43.44641" lon="3.11858">
        <ele>151.60000610352</ele>
        <time>2022-01-01T15:21:24.000Z</time>
      </trkpt>
      <trkpt lat="43.44632" lon="3.11886">
        <ele>148.60000610352</ele>
        <time>2022-01-01T15:21:42.000Z</time>
      </trkpt>
      <trkpt lat="43.44622" lon="3.11921">
        <ele>145.60000610352</ele>
        <time>2022-01-01T15:22:05.000Z</time>
      </trkpt>
      <trkpt lat="43.44611" lon="3.11948">
        <ele>143.39999389648</ele>
        <time>2022-01-01T15:22:25.000Z</time>
      </trkpt>
      <trkpt lat="43.446" lon="3.11976">
        <ele>141</ele>
        <time>2022-01-01T15:22:43.000Z</time>
      </trkpt>
      <trkpt lat="43.44586" lon="3.12012">
        <ele>138.60000610352</ele>
        <time>2022-01-01T15:23:07.000Z</time>
      </trkpt>
      <trkpt lat="43.4457" lon="3.1205">
        <ele>136</ele>
        <time>2022-01-01T15:23:34.000Z</time>
      </trkpt>
      <trkpt lat="43.44557" lon="3.12068">
        <ele>134</ele>
        <time>2022-01-01T15:23:52.000Z</time>
      </trkpt>
      <trkpt lat="43.44537" lon="3.1207">
        <ele>131.39999389648</ele>
        <time>2022-01-01T15:24:09.000Z</time>
      </trkpt>
      <trkpt lat="43.44508" lon="3.12066">
        <ele>128.19999694824</ele>
        <time>2022-01-01T15:24:31.000Z</time>
      </trkpt>
      <trkpt lat="43.44475" lon="3.12066">
        <ele>125.40000152588</ele>
        <time>2022-01-01T15:24:57.000Z</time>
      </trkpt>
      <trkpt lat="43.4446" lon="3.12063">
        <ele>124.40000152588</ele>
        <time>2022-01-01T15:25:11.000Z</time>
      </trkpt>
      <trkpt lat="43.44449" lon="3.1207">
        <ele>123.80000305176</ele>
        <time>2022-01-01T15:25:29.000Z</time>
      </trkpt>
      <trkpt lat="43.44445" lon="3.12078">
        <ele>123</ele>
        <time>2022-01-01T15:25:36.000Z</time>
      </trkpt>
      <trkpt lat="43.44459" lon="3.12108">
        <ele>123</ele>
        <time>2022-01-01T15:25:56.000Z</time>
      </trkpt>
      <trkpt lat="43.44458" lon="3.12137">
        <ele>124.40000152588</ele>
        <time>2022-01-01T15:26:16.000Z</time>
      </trkpt>
      <trkpt lat="43.44458" lon="3.12139">
        <ele>124.40000152588</ele>
        <time>2022-01-01T15:26:17.000Z</time>
      </trkpt>
      <trkpt lat="43.44455" lon="3.12166">
        <ele>126.19999694824</ele>
        <time>2022-01-01T15:26:34.000Z</time>
      </trkpt>
      <trkpt lat="43.44458" lon="3.12191">
        <ele>128.60000610352</ele>
        <time>2022-01-01T15:26:54.000Z</time>
      </trkpt>
      <trkpt lat="43.44458" lon="3.12216">
        <ele>129.80000305176</ele>
        <time>2022-01-01T15:27:12.000Z</time>
      </trkpt>
      <trkpt lat="43.4446" lon="3.12253">
        <ele>131</ele>
        <time>2022-01-01T15:27:36.000Z</time>
      </trkpt>
      <trkpt lat="43.44465" lon="3.12281">
        <ele>131.60000610352</ele>
        <time>2022-01-01T15:27:53.000Z</time>
      </trkpt>
      <trkpt lat="43.44471" lon="3.12315">
        <ele>132.39999389648</ele>
        <time>2022-01-01T15:28:14.000Z</time>
      </trkpt>
      <trkpt lat="43.44478" lon="3.12341">
        <ele>132.39999389648</ele>
        <time>2022-01-01T15:28:30.000Z</time>
      </trkpt>
      <trkpt lat="43.4448" lon="3.12344">
        <ele>132.39999389648</ele>
        <time>2022-01-01T15:28:32.000Z</time>
      </trkpt>
      <trkpt lat="43.44485" lon="3.12354">
        <ele>132.39999389648</ele>
        <time>2022-01-01T15:28:39.000Z</time>
      </trkpt>
      <trkpt lat="43.4449" lon="3.12362">
        <ele>132.39999389648</ele>
        <time>2022-01-01T15:28:46.000Z</time>
      </trkpt>
      <trkpt lat="43.44489" lon="3.12372">
        <ele>132.39999389648</ele>
        <time>2022-01-01T15:28:52.000Z</time>
      </trkpt>
      <trkpt lat="43.44474" lon="3.12409">
        <ele>133.80000305176</ele>
        <time>2022-01-01T15:29:17.000Z</time>
      </trkpt>
      <trkpt lat="43.4447" lon="3.12415">
        <ele>134.80000305176</ele>
        <time>2022-01-01T15:29:36.000Z</time>
      </trkpt>
      <trkpt lat="43.44459" lon="3.12434">
        <ele>135</ele>
        <time>2022-01-01T15:29:59.000Z</time>
      </trkpt>
      <trkpt lat="43.44445" lon="3.12463">
        <ele>136.19999694824</ele>
        <time>2022-01-01T15:30:20.000Z</time>
      </trkpt>
      <trkpt lat="43.4443" lon="3.12492">
        <ele>138</ele>
        <time>2022-01-01T15:30:42.000Z</time>
      </trkpt>
      <trkpt lat="43.44418" lon="3.12512">
        <ele>139.39999389648</ele>
        <time>2022-01-01T15:31:02.000Z</time>
      </trkpt>
      <trkpt lat="43.44403" lon="3.12534">
        <ele>141.39999389648</ele>
        <time>2022-01-01T15:31:22.000Z</time>
      </trkpt>
      <trkpt lat="43.44393" lon="3.12552">
        <ele>143.19999694824</ele>
        <time>2022-01-01T15:31:43.000Z</time>
      </trkpt>
      <trkpt lat="43.44385" lon="3.12564">
        <ele>144</ele>
        <time>2022-01-01T15:31:58.000Z</time>
      </trkpt>
      <trkpt lat="43.44372" lon="3.1258">
        <ele>145.80000305176</ele>
        <time>2022-01-01T15:32:18.000Z</time>
      </trkpt>
      <trkpt lat="43.44345" lon="3.12594">
        <ele>148.80000305176</ele>
        <time>2022-01-01T15:32:42.000Z</time>
      </trkpt>
      <trkpt lat="43.44333" lon="3.12614">
        <ele>150.60000610352</ele>
        <time>2022-01-01T15:33:00.000Z</time>
      </trkpt>
      <trkpt lat="43.44322" lon="3.12642">
        <ele>151.39999389648</ele>
        <time>2022-01-01T15:33:21.000Z</time>
      </trkpt>
      <trkpt lat="43.44305" lon="3.12669">
        <ele>151.19999694824</ele>
        <time>2022-01-01T15:33:43.000Z</time>
      </trkpt>
      <trkpt lat="43.44292" lon="3.12699">
        <ele>151.19999694824</ele>
        <time>2022-01-01T15:34:04.000Z</time>
      </trkpt>
      <trkpt lat="43.44284" lon="3.12738">
        <ele>151</ele>
        <time>2022-01-01T15:34:29.000Z</time>
      </trkpt>
      <trkpt lat="43.44281" lon="3.12775">
        <ele>150.60000610352</ele>
        <time>2022-01-01T15:34:51.000Z</time>
      </trkpt>
      <trkpt lat="43.44283" lon="3.12804">
        <ele>150.39999389648</ele>
        <time>2022-01-01T15:35:09.000Z</time>
      </trkpt>
      <trkpt lat="43.44279" lon="3.12843">
        <ele>149.19999694824</ele>
        <time>2022-01-01T15:35:33.000Z</time>
      </trkpt>
      <trkpt lat="43.44275" lon="3.12877">
        <ele>148</ele>
        <time>2022-01-01T15:35:53.000Z</time>
      </trkpt>
      <trkpt lat="43.4427" lon="3.12913">
        <ele>146.60000610352</ele>
        <time>2022-01-01T15:36:14.000Z</time>
      </trkpt>
      <trkpt lat="43.44265" lon="3.1295">
        <ele>145.39999389648</ele>
        <time>2022-01-01T15:36:36.000Z</time>
      </trkpt>
      <trkpt lat="43.44256" lon="3.12988">
        <ele>143.60000610352</ele>
        <time>2022-01-01T15:36:59.000Z</time>
      </trkpt>
      <trkpt lat="43.44255" lon="3.1302">
        <ele>142</ele>
        <time>2022-01-01T15:37:20.000Z</time>
      </trkpt>
      <trkpt lat="43.44254" lon="3.13054">
        <ele>141</ele>
        <time>2022-01-01T15:37:40.000Z</time>
      </trkpt>
      <trkpt lat="43.44251" lon="3.13095">
        <ele>139.60000610352</ele>
        <time>2022-01-01T15:38:03.000Z</time>
      </trkpt>
      <trkpt lat="43.44245" lon="3.13132">
        <ele>138.19999694824</ele>
        <time>2022-01-01T15:38:25.000Z</time>
      </trkpt>
      <trkpt lat="43.44241" lon="3.13166">
        <ele>137.39999389648</ele>
        <time>2022-01-01T15:38:45.000Z</time>
      </trkpt>
      <trkpt lat="43.44238" lon="3.13203">
        <ele>136.19999694824</ele>
        <time>2022-01-01T15:39:07.000Z</time>
      </trkpt>
      <trkpt lat="43.44219" lon="3.13222">
        <ele>135</ele>
        <time>2022-01-01T15:39:25.000Z</time>
      </trkpt>
      <trkpt lat="43.44199" lon="3.13244">
        <ele>132.80000305176</ele>
        <time>2022-01-01T15:39:47.000Z</time>
      </trkpt>
      <trkpt lat="43.44187" lon="3.13267">
        <ele>131.60000610352</ele>
        <time>2022-01-01T15:40:07.000Z</time>
      </trkpt>
      <trkpt lat="43.44183" lon="3.13292">
        <ele>130.39999389648</ele>
        <time>2022-01-01T15:40:23.000Z</time>
      </trkpt>
      <trkpt lat="43.44176" lon="3.13318">
        <ele>129</ele>
        <time>2022-01-01T15:40:42.000Z</time>
      </trkpt>
      <trkpt lat="43.44165" lon="3.13332">
        <ele>127.80000305176</ele>
        <time>2022-01-01T15:40:53.000Z</time>
      </trkpt>
      <trkpt lat="43.4414" lon="3.13348">
        <ele>125.59999847412</ele>
        <time>2022-01-01T15:41:15.000Z</time>
      </trkpt>
      <trkpt lat="43.44117" lon="3.13362">
        <ele>124.40000152588</ele>
        <time>2022-01-01T15:41:35.000Z</time>
      </trkpt>
      <trkpt lat="43.44099" lon="3.13369">
        <ele>122.80000305176</ele>
        <time>2022-01-01T15:41:52.000Z</time>
      </trkpt>
      <trkpt lat="43.44076" lon="3.13377">
        <ele>121.80000305176</ele>
        <time>2022-01-01T15:42:09.000Z</time>
      </trkpt>
      <trkpt lat="43.44069" lon="3.13383">
        <ele>121.59999847412</ele>
        <time>2022-01-01T15:42:17.000Z</time>
      </trkpt>
      <trkpt lat="43.44047" lon="3.13403">
        <ele>121.19999694824</ele>
        <time>2022-01-01T15:42:36.000Z</time>
      </trkpt>
      <trkpt lat="43.44026" lon="3.13415">
        <ele>121.40000152588</ele>
        <time>2022-01-01T15:42:55.000Z</time>
      </trkpt>
      <trkpt lat="43.44004" lon="3.13415">
        <ele>121.19999694824</ele>
        <time>2022-01-01T15:43:13.000Z</time>
      </trkpt>
      <trkpt lat="43.43993" lon="3.1342">
        <ele>121.19999694824</ele>
        <time>2022-01-01T15:43:25.000Z</time>
      </trkpt>
      <trkpt lat="43.43986" lon="3.13418">
        <ele>121.19999694824</ele>
        <time>2022-01-01T15:43:30.000Z</time>
      </trkpt>
      <trkpt lat="43.43955" lon="3.13418">
        <ele>121.59999847412</ele>
        <time>2022-01-01T15:43:53.000Z</time>
      </trkpt>
      <trkpt lat="43.43948" lon="3.13417">
        <ele>121.80000305176</ele>
        <time>2022-01-01T15:43:58.000Z</time>
      </trkpt>
      <trkpt lat="43.43938" lon="3.13442">
        <ele>122.40000152588</ele>
        <time>2022-01-01T15:44:15.000Z</time>
      </trkpt>
      <trkpt lat="43.43937" lon="3.13473">
        <ele>122.59999847412</ele>
        <time>2022-01-01T15:44:31.000Z</time>
      </trkpt>
      <trkpt lat="43.43938" lon="3.13503">
        <ele>122.40000152588</ele>
        <time>2022-01-01T15:44:48.000Z</time>
      </trkpt>
      <trkpt lat="43.43941" lon="3.1354">
        <ele>123.40000152588</ele>
        <time>2022-01-01T15:45:10.000Z</time>
      </trkpt>
      <trkpt lat="43.43943" lon="3.13572">
        <ele>125.59999847412</ele>
        <time>2022-01-01T15:45:29.000Z</time>
      </trkpt>
      <trkpt lat="43.43945" lon="3.13601">
        <ele>126.80000305176</ele>
        <time>2022-01-01T15:45:46.000Z</time>
      </trkpt>
      <trkpt lat="43.43946" lon="3.1361">
        <ele>127.19999694824</ele>
        <time>2022-01-01T15:45:52.000Z</time>
      </trkpt>
      <trkpt lat="43.43947" lon="3.13622">
        <ele>128</ele>
        <time>2022-01-01T15:45:59.000Z</time>
      </trkpt>
      <trkpt lat="43.4395" lon="3.13659">
        <ele>129.80000305176</ele>
        <time>2022-01-01T15:46:21.000Z</time>
      </trkpt>
      <trkpt lat="43.43951" lon="3.13665">
        <ele>130</ele>
        <time>2022-01-01T15:46:24.000Z</time>
      </trkpt>
      <trkpt lat="43.43952" lon="3.1367">
        <ele>130.39999389648</ele>
        <time>2022-01-01T15:46:27.000Z</time>
      </trkpt>
      <trkpt lat="43.43959" lon="3.13708">
        <ele>132.19999694824</ele>
        <time>2022-01-01T15:46:49.000Z</time>
      </trkpt>
      <trkpt lat="43.43963" lon="3.13743">
        <ele>133.39999389648</ele>
        <time>2022-01-01T15:47:08.000Z</time>
      </trkpt>
      <trkpt lat="43.43967" lon="3.13766">
        <ele>135</ele>
        <time>2022-01-01T15:47:25.000Z</time>
      </trkpt>
      <trkpt lat="43.43971" lon="3.13782">
        <ele>135.39999389648</ele>
        <time>2022-01-01T15:47:39.000Z</time>
      </trkpt>
      <trkpt lat="43.43988" lon="3.13797">
        <ele>136.19999694824</ele>
        <time>2022-01-01T15:47:56.000Z</time>
      </trkpt>
      <trkpt lat="43.43999" lon="3.13796">
        <ele>136.39999389648</ele>
        <time>2022-01-01T15:48:11.000Z</time>
      </trkpt>
      <trkpt lat="43.44004" lon="3.13798">
        <ele>136.60000610352</ele>
        <time>2022-01-01T15:48:15.000Z</time>
      </trkpt>
      <trkpt lat="43.44008" lon="3.13808">
        <ele>137</ele>
        <time>2022-01-01T15:48:31.000Z</time>
      </trkpt>
      <trkpt lat="43.44007" lon="3.1381">
        <ele>137.19999694824</ele>
        <time>2022-01-01T15:48:38.000Z</time>
      </trkpt>
      <trkpt lat="43.44005" lon="3.13812">
        <ele>137.19999694824</ele>
        <time>2022-01-01T15:48:40.000Z</time>
      </trkpt>
      <trkpt lat="43.44001" lon="3.13822">
        <ele>137.39999389648</ele>
        <time>2022-01-01T15:48:57.000Z</time>
      </trkpt>
      <trkpt lat="43.44001" lon="3.1382">
        <ele>138</ele>
        <time>2022-01-01T15:49:24.000Z</time>
      </trkpt>
      <trkpt lat="43.44002" lon="3.13819">
        <ele>138</ele>
        <time>2022-01-01T15:49:39.000Z</time>
      </trkpt>
    </trkseg>
  </trk>
</gpx>